sensor_id;sensor_type;location;lat;lon;timestamp;P1;durP1;ratioP1;P2;durP2;ratioP2
11568;SDS011;5840;46.894;15.542;2022-10-16T00:00:46;54.00;;;48.60;;
11568;SDS011;5840;46.894;15.542;2022-10-16T00:03:13;48.43;;;43.80;;
11568;SDS011;5840;46.894;15.542;2022-10-16T00:05:41;52.50;;;47.40;;
11568;SDS011;5840;46.894;15.542;2022-10-16T00:08:11;55.43;;;49.83;;
11568;SDS011;5840;46.894;15.542;2022-10-16T00:10:38;54.37;;;48.63;;
11568;SDS011;5840;46.894;15.542;2022-10-16T00:13:05;57.30;;;51.20;;
11568;SDS011;5840;46.894;15.542;2022-10-16T00:15:33;53.83;;;48.43;;
11568;SDS011;5840;46.894;15.542;2022-10-16T00:18:02;53.17;;;47.67;;
11568;SDS011;5840;46.894;15.542;2022-10-16T00:20:30;57.57;;;51.43;;
11568;SDS011;5840;46.894;15.542;2022-10-16T00:22:59;57.20;;;51.27;;
11568;SDS011;5840;46.894;15.542;2022-10-16T00:25:27;59.27;;;53.17;;
11568;SDS011;5840;46.894;15.542;2022-10-16T00:27:57;55.60;;;50.10;;
11568;SDS011;5840;46.894;15.542;2022-10-16T00:30:24;58.53;;;52.40;;
11568;SDS011;5840;46.894;15.542;2022-10-16T00:32:52;59.87;;;53.47;;
11568;SDS011;5840;46.894;15.542;2022-10-16T00:35:19;56.47;;;50.53;;
11568;SDS011;5840;46.894;15.542;2022-10-16T00:37:46;54.57;;;49.07;;
11568;SDS011;5840;46.894;15.542;2022-10-16T00:40:13;57.13;;;51.17;;
11568;SDS011;5840;46.894;15.542;2022-10-16T00:42:41;58.27;;;51.97;;
11568;SDS011;5840;46.894;15.542;2022-10-16T00:45:09;56.10;;;50.27;;
11568;SDS011;5840;46.894;15.542;2022-10-16T00:47:37;52.20;;;46.80;;
11568;SDS011;5840;46.894;15.542;2022-10-16T00:50:08;53.10;;;47.70;;
11568;SDS011;5840;46.894;15.542;2022-10-16T00:52:37;54.50;;;48.80;;
11568;SDS011;5840;46.894;15.542;2022-10-16T00:55:07;53.00;;;47.40;;
11568;SDS011;5840;46.894;15.542;2022-10-16T00:57:35;54.37;;;48.87;;
11568;SDS011;5840;46.894;15.542;2022-10-16T01:00:06;56.63;;;50.57;;
11568;SDS011;5840;46.894;15.542;2022-10-16T01:02:34;53.83;;;48.17;;
11568;SDS011;5840;46.894;15.542;2022-10-16T01:05:01;58.17;;;51.00;;
11568;SDS011;5840;46.894;15.542;2022-10-16T01:07:32;56.27;;;50.20;;
11568;SDS011;5840;46.894;15.542;2022-10-16T01:10:10;54.07;;;48.30;;
11568;SDS011;5840;46.894;15.542;2022-10-16T01:12:48;52.97;;;47.27;;
11568;SDS011;5840;46.894;15.542;2022-10-16T01:15:23;54.93;;;49.17;;
11568;SDS011;5840;46.894;15.542;2022-10-16T01:17:56;51.07;;;45.67;;
11568;SDS011;5840;46.894;15.542;2022-10-16T01:20:27;48.47;;;43.77;;
11568;SDS011;5840;46.894;15.542;2022-10-16T01:23:09;49.80;;;44.80;;
11568;SDS011;5840;46.894;15.542;2022-10-16T01:25:51;52.37;;;47.07;;
11568;SDS011;5840;46.894;15.542;2022-10-16T01:28:34;53.63;;;48.33;;
11568;SDS011;5840;46.894;15.542;2022-10-16T01:31:05;50.00;;;45.20;;
11568;SDS011;5840;46.894;15.542;2022-10-16T01:33:37;56.20;;;50.20;;
11568;SDS011;5840;46.894;15.542;2022-10-16T01:36:09;48.67;;;43.67;;
11568;SDS011;5840;46.894;15.542;2022-10-16T01:38:39;47.27;;;42.60;;
11568;SDS011;5840;46.894;15.542;2022-10-16T01:41:08;53.67;;;48.07;;
11568;SDS011;5840;46.894;15.542;2022-10-16T01:43:39;54.17;;;48.53;;
11568;SDS011;5840;46.894;15.542;2022-10-16T01:46:09;47.60;;;42.90;;
11568;SDS011;5840;46.894;15.542;2022-10-16T01:48:36;51.23;;;46.00;;
11568;SDS011;5840;46.894;15.542;2022-10-16T01:51:06;47.00;;;42.50;;
11568;SDS011;5840;46.894;15.542;2022-10-16T01:53:36;43.90;;;39.80;;
11568;SDS011;5840;46.894;15.542;2022-10-16T01:56:04;47.27;;;42.67;;
11568;SDS011;5840;46.894;15.542;2022-10-16T01:58:35;52.80;;;47.43;;
11568;SDS011;5840;46.894;15.542;2022-10-16T02:01:07;52.90;;;47.57;;
11568;SDS011;5840;46.894;15.542;2022-10-16T02:03:36;54.10;;;48.60;;
11568;SDS011;5840;46.894;15.542;2022-10-16T02:06:06;48.40;;;43.63;;
11568;SDS011;5840;46.894;15.542;2022-10-16T02:08:34;49.43;;;44.53;;
11568;SDS011;5840;46.894;15.542;2022-10-16T02:11:02;50.20;;;45.37;;
11568;SDS011;5840;46.894;15.542;2022-10-16T02:13:29;46.00;;;41.40;;
11568;SDS011;5840;46.894;15.542;2022-10-16T02:16:01;46.40;;;41.80;;
11568;SDS011;5840;46.894;15.542;2022-10-16T02:18:28;45.23;;;40.73;;
11568;SDS011;5840;46.894;15.542;2022-10-16T02:20:57;46.27;;;41.70;;
11568;SDS011;5840;46.894;15.542;2022-10-16T02:23:28;46.47;;;41.97;;
11568;SDS011;5840;46.894;15.542;2022-10-16T02:26:02;47.30;;;42.70;;
11568;SDS011;5840;46.894;15.542;2022-10-16T02:28:34;45.57;;;41.10;;
11568;SDS011;5840;46.894;15.542;2022-10-16T02:31:07;45.93;;;41.37;;
11568;SDS011;5840;46.894;15.542;2022-10-16T02:33:37;43.30;;;39.17;;
11568;SDS011;5840;46.894;15.542;2022-10-16T02:36:08;43.73;;;39.53;;
11568;SDS011;5840;46.894;15.542;2022-10-16T02:38:35;42.53;;;38.53;;
11568;SDS011;5840;46.894;15.542;2022-10-16T02:41:03;47.17;;;42.40;;
11568;SDS011;5840;46.894;15.542;2022-10-16T02:43:31;48.57;;;43.77;;
11568;SDS011;5840;46.894;15.542;2022-10-16T02:45:58;44.63;;;40.20;;
11568;SDS011;5840;46.894;15.542;2022-10-16T02:48:27;48.40;;;43.60;;
11568;SDS011;5840;46.894;15.542;2022-10-16T02:50:54;48.87;;;43.63;;
11568;SDS011;5840;46.894;15.542;2022-10-16T02:53:22;46.37;;;41.77;;
11568;SDS011;5840;46.894;15.542;2022-10-16T02:55:49;47.73;;;42.93;;
11568;SDS011;5840;46.894;15.542;2022-10-16T02:58:16;52.83;;;47.30;;
11568;SDS011;5840;46.894;15.542;2022-10-16T03:00:42;48.43;;;43.57;;
11568;SDS011;5840;46.894;15.542;2022-10-16T03:03:09;52.10;;;46.53;;
11568;SDS011;5840;46.894;15.542;2022-10-16T03:05:38;48.23;;;43.50;;
11568;SDS011;5840;46.894;15.542;2022-10-16T03:08:05;48.33;;;43.40;;
11568;SDS011;5840;46.894;15.542;2022-10-16T03:10:31;51.10;;;45.77;;
11568;SDS011;5840;46.894;15.542;2022-10-16T03:12:58;48.50;;;43.80;;
11568;SDS011;5840;46.894;15.542;2022-10-16T03:15:25;49.43;;;44.23;;
11568;SDS011;5840;46.894;15.542;2022-10-16T03:17:53;46.17;;;41.53;;
11568;SDS011;5840;46.894;15.542;2022-10-16T03:20:20;44.77;;;40.23;;
11568;SDS011;5840;46.894;15.542;2022-10-16T03:22:48;49.53;;;44.50;;
11568;SDS011;5840;46.894;15.542;2022-10-16T03:25:15;46.93;;;42.17;;
11568;SDS011;5840;46.894;15.542;2022-10-16T03:27:42;46.23;;;41.53;;
11568;SDS011;5840;46.894;15.542;2022-10-16T03:30:09;46.07;;;41.33;;
11568;SDS011;5840;46.894;15.542;2022-10-16T03:32:37;48.63;;;43.93;;
11568;SDS011;5840;46.894;15.542;2022-10-16T03:35:04;48.17;;;43.23;;
11568;SDS011;5840;46.894;15.542;2022-10-16T03:37:31;48.00;;;43.17;;
11568;SDS011;5840;46.894;15.542;2022-10-16T03:40:00;45.93;;;41.23;;
11568;SDS011;5840;46.894;15.542;2022-10-16T03:42:27;47.30;;;42.60;;
11568;SDS011;5840;46.894;15.542;2022-10-16T03:44:54;50.03;;;44.93;;
11568;SDS011;5840;46.894;15.542;2022-10-16T03:47:21;44.70;;;40.00;;
11568;SDS011;5840;46.894;15.542;2022-10-16T03:49:48;44.90;;;40.47;;
11568;SDS011;5840;46.894;15.542;2022-10-16T03:52:15;44.57;;;40.07;;
11568;SDS011;5840;46.894;15.542;2022-10-16T03:54:43;47.07;;;42.33;;
11568;SDS011;5840;46.894;15.542;2022-10-16T03:57:11;42.03;;;37.93;;
11568;SDS011;5840;46.894;15.542;2022-10-16T03:59:38;42.47;;;38.27;;
11568;SDS011;5840;46.894;15.542;2022-10-16T04:02:05;41.73;;;37.83;;
11568;SDS011;5840;46.894;15.542;2022-10-16T04:04:32;41.50;;;37.40;;
11568;SDS011;5840;46.894;15.542;2022-10-16T04:07:00;40.87;;;37.03;;
11568;SDS011;5840;46.894;15.542;2022-10-16T04:09:27;38.17;;;34.67;;
11568;SDS011;5840;46.894;15.542;2022-10-16T04:11:54;43.33;;;39.03;;
11568;SDS011;5840;46.894;15.542;2022-10-16T04:14:23;43.90;;;39.30;;
11568;SDS011;5840;46.894;15.542;2022-10-16T04:16:50;40.80;;;36.57;;
11568;SDS011;5840;46.894;15.542;2022-10-16T04:19:17;41.13;;;37.10;;
11568;SDS011;5840;46.894;15.542;2022-10-16T04:21:44;41.10;;;37.13;;
11568;SDS011;5840;46.894;15.542;2022-10-16T04:24:11;47.43;;;42.47;;
11568;SDS011;5840;46.894;15.542;2022-10-16T04:26:38;40.13;;;36.30;;
11568;SDS011;5840;46.894;15.542;2022-10-16T04:29:05;42.57;;;38.37;;
11568;SDS011;5840;46.894;15.542;2022-10-16T04:31:33;45.20;;;40.57;;
11568;SDS011;5840;46.894;15.542;2022-10-16T04:34:00;43.90;;;39.37;;
11568;SDS011;5840;46.894;15.542;2022-10-16T04:36:27;44.70;;;40.07;;
11568;SDS011;5840;46.894;15.542;2022-10-16T04:38:54;41.53;;;37.40;;
11568;SDS011;5840;46.894;15.542;2022-10-16T04:41:21;39.37;;;35.57;;
11568;SDS011;5840;46.894;15.542;2022-10-16T04:43:48;39.30;;;35.30;;
11568;SDS011;5840;46.894;15.542;2022-10-16T04:46:15;39.80;;;35.93;;
11568;SDS011;5840;46.894;15.542;2022-10-16T04:48:43;41.07;;;36.87;;
11568;SDS011;5840;46.894;15.542;2022-10-16T04:51:10;46.47;;;41.60;;
11568;SDS011;5840;46.894;15.542;2022-10-16T04:53:37;43.37;;;39.07;;
11568;SDS011;5840;46.894;15.542;2022-10-16T04:56:04;44.53;;;40.03;;
11568;SDS011;5840;46.894;15.542;2022-10-16T04:58:31;43.27;;;38.77;;
11568;SDS011;5840;46.894;15.542;2022-10-16T05:00:58;40.50;;;36.40;;
11568;SDS011;5840;46.894;15.542;2022-10-16T05:03:25;41.10;;;37.10;;
11568;SDS011;5840;46.894;15.542;2022-10-16T05:05:53;40.03;;;36.13;;
11568;SDS011;5840;46.894;15.542;2022-10-16T05:08:20;40.70;;;36.60;;
11568;SDS011;5840;46.894;15.542;2022-10-16T05:10:47;38.77;;;34.87;;
11568;SDS011;5840;46.894;15.542;2022-10-16T05:13:14;41.67;;;37.47;;
11568;SDS011;5840;46.894;15.542;2022-10-16T05:15:41;42.63;;;38.33;;
11568;SDS011;5840;46.894;15.542;2022-10-16T05:18:08;38.60;;;34.70;;
11568;SDS011;5840;46.894;15.542;2022-10-16T05:20:35;42.17;;;37.73;;
11568;SDS011;5840;46.894;15.542;2022-10-16T05:23:03;41.63;;;37.33;;
11568;SDS011;5840;46.894;15.542;2022-10-16T05:25:30;39.80;;;35.67;;
11568;SDS011;5840;46.894;15.542;2022-10-16T05:27:57;45.93;;;41.23;;
11568;SDS011;5840;46.894;15.542;2022-10-16T05:30:24;41.93;;;37.50;;
11568;SDS011;5840;46.894;15.542;2022-10-16T05:32:51;42.63;;;38.43;;
11568;SDS011;5840;46.894;15.542;2022-10-16T05:35:18;41.90;;;37.80;;
11568;SDS011;5840;46.894;15.542;2022-10-16T05:37:45;38.37;;;34.47;;
11568;SDS011;5840;46.894;15.542;2022-10-16T05:40:14;41.60;;;37.03;;
11568;SDS011;5840;46.894;15.542;2022-10-16T05:42:42;40.00;;;35.80;;
11568;SDS011;5840;46.894;15.542;2022-10-16T05:45:09;39.07;;;35.07;;
11568;SDS011;5840;46.894;15.542;2022-10-16T05:47:37;41.63;;;37.37;;
11568;SDS011;5840;46.894;15.542;2022-10-16T05:50:04;39.87;;;35.97;;
11568;SDS011;5840;46.894;15.542;2022-10-16T05:52:32;40.00;;;35.83;;
11568;SDS011;5840;46.894;15.542;2022-10-16T05:54:59;40.00;;;35.90;;
11568;SDS011;5840;46.894;15.542;2022-10-16T05:57:27;39.07;;;34.97;;
11568;SDS011;5840;46.894;15.542;2022-10-16T05:59:54;39.27;;;35.40;;
11568;SDS011;5840;46.894;15.542;2022-10-16T06:02:21;37.10;;;33.20;;
11568;SDS011;5840;46.894;15.542;2022-10-16T06:04:48;37.10;;;33.47;;
11568;SDS011;5840;46.894;15.542;2022-10-16T06:07:14;35.87;;;32.17;;
11568;SDS011;5840;46.894;15.542;2022-10-16T06:09:41;35.10;;;31.63;;
11568;SDS011;5840;46.894;15.542;2022-10-16T06:12:08;38.60;;;34.70;;
11568;SDS011;5840;46.894;15.542;2022-10-16T06:14:37;36.83;;;33.43;;
11568;SDS011;5840;46.894;15.542;2022-10-16T06:17:03;33.23;;;30.20;;
11568;SDS011;5840;46.894;15.542;2022-10-16T06:19:30;36.47;;;33.17;;
11568;SDS011;5840;46.894;15.542;2022-10-16T06:21:57;36.93;;;33.53;;
11568;SDS011;5840;46.894;15.542;2022-10-16T06:24:25;35.60;;;32.10;;
11568;SDS011;5840;46.894;15.542;2022-10-16T06:26:52;39.60;;;33.83;;
11568;SDS011;5840;46.894;15.542;2022-10-16T06:29:19;41.70;;;35.23;;
11568;SDS011;5840;46.894;15.542;2022-10-16T06:31:47;38.30;;;34.73;;
11568;SDS011;5840;46.894;15.542;2022-10-16T06:34:14;40.20;;;36.23;;
11568;SDS011;5840;46.894;15.542;2022-10-16T06:36:41;35.73;;;32.53;;
11568;SDS011;5840;46.894;15.542;2022-10-16T06:39:08;35.20;;;32.10;;
11568;SDS011;5840;46.894;15.542;2022-10-16T06:41:35;38.00;;;34.23;;
11568;SDS011;5840;46.894;15.542;2022-10-16T06:44:04;37.80;;;34.10;;
11568;SDS011;5840;46.894;15.542;2022-10-16T06:46:32;40.30;;;36.53;;
11568;SDS011;5840;46.894;15.542;2022-10-16T06:49:01;36.87;;;33.50;;
11568;SDS011;5840;46.894;15.542;2022-10-16T06:51:28;36.60;;;33.30;;
11568;SDS011;5840;46.894;15.542;2022-10-16T06:53:57;37.87;;;34.13;;
11568;SDS011;5840;46.894;15.542;2022-10-16T06:56:25;33.33;;;30.33;;
11568;SDS011;5840;46.894;15.542;2022-10-16T06:58:53;34.40;;;31.13;;
11568;SDS011;5840;46.894;15.542;2022-10-16T07:01:21;31.27;;;28.20;;
11568;SDS011;5840;46.894;15.542;2022-10-16T07:03:49;29.87;;;26.97;;
11568;SDS011;5840;46.894;15.542;2022-10-16T07:06:18;30.43;;;27.67;;
11568;SDS011;5840;46.894;15.542;2022-10-16T07:08:47;33.47;;;30.50;;
11568;SDS011;5840;46.894;15.542;2022-10-16T07:11:15;31.80;;;28.80;;
11568;SDS011;5840;46.894;15.542;2022-10-16T07:13:44;29.00;;;26.20;;
11568;SDS011;5840;46.894;15.542;2022-10-16T07:16:13;27.70;;;25.00;;
11568;SDS011;5840;46.894;15.542;2022-10-16T07:18:41;29.73;;;27.03;;
11568;SDS011;5840;46.894;15.542;2022-10-16T07:21:11;28.53;;;25.97;;
11568;SDS011;5840;46.894;15.542;2022-10-16T07:23:41;32.10;;;29.27;;
11568;SDS011;5840;46.894;15.542;2022-10-16T07:26:08;30.90;;;28.27;;
11568;SDS011;5840;46.894;15.542;2022-10-16T07:28:36;29.20;;;26.80;;
11568;SDS011;5840;46.894;15.542;2022-10-16T07:31:05;27.90;;;25.70;;
11568;SDS011;5840;46.894;15.542;2022-10-16T07:33:33;26.90;;;24.80;;
11568;SDS011;5840;46.894;15.542;2022-10-16T07:36:01;27.97;;;25.77;;
11568;SDS011;5840;46.894;15.542;2022-10-16T07:38:28;27.10;;;24.90;;
11568;SDS011;5840;46.894;15.542;2022-10-16T07:40:59;27.27;;;24.93;;
11568;SDS011;5840;46.894;15.542;2022-10-16T07:43:28;26.17;;;23.97;;
11568;SDS011;5840;46.894;15.542;2022-10-16T07:45:55;28.10;;;25.80;;
11568;SDS011;5840;46.894;15.542;2022-10-16T07:48:22;26.07;;;24.03;;
11568;SDS011;5840;46.894;15.542;2022-10-16T07:50:52;26.93;;;24.63;;
11568;SDS011;5840;46.894;15.542;2022-10-16T07:53:22;26.60;;;24.40;;
11568;SDS011;5840;46.894;15.542;2022-10-16T07:55:49;26.07;;;23.90;;
11568;SDS011;5840;46.894;15.542;2022-10-16T07:58:17;26.50;;;24.30;;
11568;SDS011;5840;46.894;15.542;2022-10-16T08:00:45;26.23;;;24.13;;
11568;SDS011;5840;46.894;15.542;2022-10-16T08:03:12;26.50;;;24.20;;
11568;SDS011;5840;46.894;15.542;2022-10-16T08:05:39;26.80;;;24.70;;
11568;SDS011;5840;46.894;15.542;2022-10-16T08:08:06;25.63;;;23.53;;
11568;SDS011;5840;46.894;15.542;2022-10-16T08:10:33;26.97;;;24.77;;
11568;SDS011;5840;46.894;15.542;2022-10-16T08:13:00;25.03;;;23.03;;
11568;SDS011;5840;46.894;15.542;2022-10-16T08:15:28;26.70;;;24.33;;
11568;SDS011;5840;46.894;15.542;2022-10-16T08:17:58;26.37;;;24.17;;
11568;SDS011;5840;46.894;15.542;2022-10-16T08:20:27;27.60;;;25.30;;
11568;SDS011;5840;46.894;15.542;2022-10-16T08:22:54;24.63;;;22.70;;
11568;SDS011;5840;46.894;15.542;2022-10-16T08:25:22;26.30;;;24.00;;
11568;SDS011;5840;46.894;15.542;2022-10-16T08:27:50;26.10;;;23.80;;
11568;SDS011;5840;46.894;15.542;2022-10-16T08:30:17;26.30;;;24.10;;
11568;SDS011;5840;46.894;15.542;2022-10-16T08:32:46;24.10;;;22.10;;
11568;SDS011;5840;46.894;15.542;2022-10-16T08:35:14;24.13;;;22.07;;
11568;SDS011;5840;46.894;15.542;2022-10-16T08:37:41;22.73;;;20.83;;
11568;SDS011;5840;46.894;15.542;2022-10-16T08:40:12;24.03;;;21.93;;
11568;SDS011;5840;46.894;15.542;2022-10-16T08:42:52;24.50;;;22.40;;
11568;SDS011;5840;46.894;15.542;2022-10-16T08:45:34;21.77;;;19.77;;
11568;SDS011;5840;46.894;15.542;2022-10-16T08:48:20;21.37;;;19.60;;
11568;SDS011;5840;46.894;15.542;2022-10-16T08:50:51;21.70;;;19.93;;
11568;SDS011;5840;46.894;15.542;2022-10-16T08:53:19;21.23;;;19.53;;
11568;SDS011;5840;46.894;15.542;2022-10-16T08:55:50;21.97;;;20.17;;
11568;SDS011;5840;46.894;15.542;2022-10-16T08:58:18;23.03;;;20.83;;
11568;SDS011;5840;46.894;15.542;2022-10-16T09:00:47;23.27;;;21.00;;
11568;SDS011;5840;46.894;15.542;2022-10-16T09:03:17;22.97;;;20.97;;
11568;SDS011;5840;46.894;15.542;2022-10-16T09:06:05;24.47;;;22.17;;
11568;SDS011;5840;46.894;15.542;2022-10-16T09:08:40;22.83;;;20.67;;
11568;SDS011;5840;46.894;15.542;2022-10-16T09:11:15;22.13;;;20.33;;
11568;SDS011;5840;46.894;15.542;2022-10-16T09:13:53;22.53;;;20.63;;
11568;SDS011;5840;46.894;15.542;2022-10-16T09:16:30;24.23;;;22.13;;
11568;SDS011;5840;46.894;15.542;2022-10-16T09:19:04;24.00;;;21.90;;
11568;SDS011;5840;46.894;15.542;2022-10-16T09:21:41;23.73;;;21.67;;
11568;SDS011;5840;46.894;15.542;2022-10-16T09:24:11;23.33;;;21.17;;
11568;SDS011;5840;46.894;15.542;2022-10-16T09:26:41;25.33;;;23.00;;
11568;SDS011;5840;46.894;15.542;2022-10-16T09:29:08;24.00;;;21.97;;
11568;SDS011;5840;46.894;15.542;2022-10-16T09:31:37;24.80;;;22.80;;
11568;SDS011;5840;46.894;15.542;2022-10-16T09:34:06;24.40;;;22.40;;
11568;SDS011;5840;46.894;15.542;2022-10-16T09:36:39;23.00;;;21.03;;
11568;SDS011;5840;46.894;15.542;2022-10-16T09:39:08;24.63;;;22.37;;
11568;SDS011;5840;46.894;15.542;2022-10-16T09:41:37;24.53;;;22.43;;
11568;SDS011;5840;46.894;15.542;2022-10-16T09:44:06;22.80;;;20.90;;
11568;SDS011;5840;46.894;15.542;2022-10-16T09:46:45;24.20;;;22.20;;
11568;SDS011;5840;46.894;15.542;2022-10-16T09:49:20;23.70;;;21.80;;
11568;SDS011;5840;46.894;15.542;2022-10-16T09:51:49;24.80;;;22.67;;
11568;SDS011;5840;46.894;15.542;2022-10-16T09:54:17;24.30;;;22.23;;
11568;SDS011;5840;46.894;15.542;2022-10-16T09:56:45;25.07;;;22.87;;
11568;SDS011;5840;46.894;15.542;2022-10-16T09:59:17;23.90;;;21.80;;
11568;SDS011;5840;46.894;15.542;2022-10-16T10:01:45;24.47;;;22.37;;
11568;SDS011;5840;46.894;15.542;2022-10-16T10:04:13;25.57;;;23.37;;
11568;SDS011;5840;46.894;15.542;2022-10-16T10:06:43;25.17;;;23.17;;
11568;SDS011;5840;46.894;15.542;2022-10-16T10:09:16;25.23;;;23.13;;
11568;SDS011;5840;46.894;15.542;2022-10-16T10:11:49;26.30;;;24.17;;
11568;SDS011;5840;46.894;15.542;2022-10-16T10:14:19;27.03;;;24.83;;
11568;SDS011;5840;46.894;15.542;2022-10-16T10:16:49;28.60;;;26.07;;
11568;SDS011;5840;46.894;15.542;2022-10-16T10:19:17;26.63;;;24.37;;
11568;SDS011;5840;46.894;15.542;2022-10-16T10:21:46;26.90;;;24.70;;
11568;SDS011;5840;46.894;15.542;2022-10-16T10:24:14;28.70;;;26.27;;
11568;SDS011;5840;46.894;15.542;2022-10-16T10:26:46;28.10;;;25.80;;
11568;SDS011;5840;46.894;15.542;2022-10-16T10:29:19;28.40;;;25.80;;
11568;SDS011;5840;46.894;15.542;2022-10-16T10:32:06;26.43;;;24.23;;
11568;SDS011;5840;46.894;15.542;2022-10-16T10:34:45;25.83;;;23.43;;
11568;SDS011;5840;46.894;15.542;2022-10-16T10:37:27;24.27;;;22.17;;
11568;SDS011;5840;46.894;15.542;2022-10-16T10:40:06;23.47;;;21.37;;
11568;SDS011;5840;46.894;15.542;2022-10-16T10:42:40;23.57;;;21.57;;
11568;SDS011;5840;46.894;15.542;2022-10-16T10:45:21;23.20;;;21.30;;
11568;SDS011;5840;46.894;15.542;2022-10-16T10:47:56;23.70;;;21.73;;
11568;SDS011;5840;46.894;15.542;2022-10-16T10:50:34;21.93;;;20.03;;
11568;SDS011;5840;46.894;15.542;2022-10-16T10:53:11;22.13;;;20.20;;
11568;SDS011;5840;46.894;15.542;2022-10-16T10:55:51;21.13;;;19.40;;
11568;SDS011;5840;46.894;15.542;2022-10-16T10:58:35;22.33;;;20.40;;
11568;SDS011;5840;46.894;15.542;2022-10-16T11:01:16;21.57;;;19.70;;
11568;SDS011;5840;46.894;15.542;2022-10-16T11:03:57;20.67;;;18.97;;
11568;SDS011;5840;46.894;15.542;2022-10-16T11:06:40;20.13;;;18.43;;
11568;SDS011;5840;46.894;15.542;2022-10-16T11:09:12;20.27;;;18.67;;
11568;SDS011;5840;46.894;15.542;2022-10-16T11:11:45;20.57;;;18.90;;
11568;SDS011;5840;46.894;15.542;2022-10-16T11:14:17;20.87;;;19.07;;
11568;SDS011;5840;46.894;15.542;2022-10-16T11:16:48;19.43;;;17.70;;
11568;SDS011;5840;46.894;15.542;2022-10-16T11:19:21;19.50;;;17.80;;
11568;SDS011;5840;46.894;15.542;2022-10-16T11:21:56;18.80;;;17.30;;
11568;SDS011;5840;46.894;15.542;2022-10-16T11:24:35;19.60;;;18.10;;
11568;SDS011;5840;46.894;15.542;2022-10-16T11:27:09;21.13;;;19.13;;
11568;SDS011;5840;46.894;15.542;2022-10-16T11:29:43;20.57;;;18.83;;
11568;SDS011;5840;46.894;15.542;2022-10-16T11:32:17;17.90;;;16.50;;
11568;SDS011;5840;46.894;15.542;2022-10-16T11:34:49;17.43;;;16.13;;
11568;SDS011;5840;46.894;15.542;2022-10-16T11:37:19;18.03;;;16.50;;
11568;SDS011;5840;46.894;15.542;2022-10-16T11:39:51;18.73;;;17.23;;
11568;SDS011;5840;46.894;15.542;2022-10-16T11:42:22;18.90;;;17.30;;
11568;SDS011;5840;46.894;15.542;2022-10-16T11:44:55;17.87;;;16.47;;
11568;SDS011;5840;46.894;15.542;2022-10-16T11:47:31;18.83;;;17.17;;
11568;SDS011;5840;46.894;15.542;2022-10-16T11:50:02;18.20;;;16.80;;
11568;SDS011;5840;46.894;15.542;2022-10-16T11:52:36;17.17;;;15.87;;
11568;SDS011;5840;46.894;15.542;2022-10-16T11:55:14;17.67;;;16.17;;
11568;SDS011;5840;46.894;15.542;2022-10-16T11:57:44;17.53;;;16.13;;
11568;SDS011;5840;46.894;15.542;2022-10-16T12:00:18;18.03;;;16.50;;
11568;SDS011;5840;46.894;15.542;2022-10-16T12:02:51;15.77;;;14.47;;
11568;SDS011;5840;46.894;15.542;2022-10-16T12:05:27;16.50;;;15.23;;
11568;SDS011;5840;46.894;15.542;2022-10-16T12:08:02;17.87;;;16.37;;
11568;SDS011;5840;46.894;15.542;2022-10-16T12:10:37;16.97;;;15.67;;
11568;SDS011;5840;46.894;15.542;2022-10-16T12:16:05;16.13;;;14.73;;
11568;SDS011;5840;46.894;15.542;2022-10-16T12:18:33;16.17;;;14.77;;
11568;SDS011;5840;46.894;15.542;2022-10-16T12:21:00;16.83;;;15.37;;
11568;SDS011;5840;46.894;15.542;2022-10-16T12:23:31;17.60;;;16.20;;
11568;SDS011;5840;46.894;15.542;2022-10-16T12:26:00;17.77;;;16.33;;
11568;SDS011;5840;46.894;15.542;2022-10-16T12:28:28;15.97;;;14.67;;
11568;SDS011;5840;46.894;15.542;2022-10-16T12:30:58;16.57;;;15.17;;
11568;SDS011;5840;46.894;15.542;2022-10-16T12:33:26;17.37;;;15.97;;
11568;SDS011;5840;46.894;15.542;2022-10-16T12:35:55;16.27;;;15.07;;
11568;SDS011;5840;46.894;15.542;2022-10-16T12:38:25;16.57;;;15.03;;
11568;SDS011;5840;46.894;15.542;2022-10-16T12:40:55;17.37;;;15.93;;
11568;SDS011;5840;46.894;15.542;2022-10-16T12:46:22;17.47;;;16.07;;
11568;SDS011;5840;46.894;15.542;2022-10-16T12:49:05;19.10;;;17.53;;
11568;SDS011;5840;46.894;15.542;2022-10-16T12:51:47;20.33;;;18.20;;
11568;SDS011;5840;46.894;15.542;2022-10-16T12:54:15;21.47;;;19.77;;
11568;SDS011;5840;46.894;15.542;2022-10-16T12:56:47;22.27;;;20.30;;
11568;SDS011;5840;46.894;15.542;2022-10-16T12:59:28;23.30;;;21.40;;
11568;SDS011;5840;46.894;15.542;2022-10-16T13:02:08;24.10;;;22.03;;
11568;SDS011;5840;46.894;15.542;2022-10-16T13:05:01;23.17;;;21.37;;
11568;SDS011;5840;46.894;15.542;2022-10-16T13:07:51;24.73;;;22.63;;
11568;SDS011;5840;46.894;15.542;2022-10-16T13:10:26;24.23;;;22.23;;
11568;SDS011;5840;46.894;15.542;2022-10-16T13:13:13;23.30;;;21.40;;
11568;SDS011;5840;46.894;15.542;2022-10-16T13:16:07;23.77;;;21.47;;
11568;SDS011;5840;46.894;15.542;2022-10-16T13:18:44;23.53;;;21.43;;
11568;SDS011;5840;46.894;15.542;2022-10-16T13:21:20;26.30;;;24.07;;
11568;SDS011;5840;46.894;15.542;2022-10-16T13:24:01;25.97;;;23.70;;
11568;SDS011;5840;46.894;15.542;2022-10-16T13:26:39;25.57;;;23.37;;
11568;SDS011;5840;46.894;15.542;2022-10-16T13:29:10;25.37;;;23.17;;
11568;SDS011;5840;46.894;15.542;2022-10-16T13:31:40;26.60;;;24.40;;
11568;SDS011;5840;46.894;15.542;2022-10-16T13:34:10;26.10;;;23.60;;
11568;SDS011;5840;46.894;15.542;2022-10-16T13:36:44;27.00;;;24.70;;
11568;SDS011;5840;46.894;15.542;2022-10-16T13:39:15;25.70;;;23.40;;
11568;SDS011;5840;46.894;15.542;2022-10-16T13:41:57;25.60;;;23.20;;
11568;SDS011;5840;46.894;15.542;2022-10-16T13:44:27;25.17;;;22.97;;
11568;SDS011;5840;46.894;15.542;2022-10-16T13:47:01;26.27;;;23.77;;
11568;SDS011;5840;46.894;15.542;2022-10-16T13:49:29;25.57;;;23.37;;
11568;SDS011;5840;46.894;15.542;2022-10-16T13:51:56;25.43;;;23.27;;
11568;SDS011;5840;46.894;15.542;2022-10-16T13:54:24;25.50;;;23.30;;
11568;SDS011;5840;46.894;15.542;2022-10-16T13:56:52;25.50;;;23.30;;
11568;SDS011;5840;46.894;15.542;2022-10-16T13:59:23;25.17;;;23.07;;
11568;SDS011;5840;46.894;15.542;2022-10-16T14:01:51;23.97;;;21.97;;
11568;SDS011;5840;46.894;15.542;2022-10-16T14:04:22;24.17;;;22.13;;
11568;SDS011;5840;46.894;15.542;2022-10-16T14:06:51;23.60;;;21.50;;
11568;SDS011;5840;46.894;15.542;2022-10-16T14:09:21;24.57;;;22.53;;
11568;SDS011;5840;46.894;15.542;2022-10-16T14:11:51;25.73;;;23.50;;
11568;SDS011;5840;46.894;15.542;2022-10-16T14:14:21;24.90;;;22.63;;
11568;SDS011;5840;46.894;15.542;2022-10-16T14:16:49;24.23;;;22.23;;
11568;SDS011;5840;46.894;15.542;2022-10-16T14:19:18;24.47;;;22.40;;
11568;SDS011;5840;46.894;15.542;2022-10-16T14:21:49;24.47;;;22.30;;
11568;SDS011;5840;46.894;15.542;2022-10-16T14:24:24;25.80;;;23.63;;
11568;SDS011;5840;46.894;15.542;2022-10-16T14:26:53;24.20;;;21.90;;
11568;SDS011;5840;46.894;15.542;2022-10-16T14:29:21;25.17;;;22.83;;
11568;SDS011;5840;46.894;15.542;2022-10-16T14:31:56;24.77;;;22.67;;
11568;SDS011;5840;46.894;15.542;2022-10-16T14:34:28;24.73;;;22.63;;
11568;SDS011;5840;46.894;15.542;2022-10-16T14:36:59;25.10;;;22.67;;
11568;SDS011;5840;46.894;15.542;2022-10-16T14:39:32;24.67;;;22.57;;
11568;SDS011;5840;46.894;15.542;2022-10-16T14:41:59;24.50;;;22.37;;
11568;SDS011;5840;46.894;15.542;2022-10-16T14:44:28;24.87;;;22.63;;